Airfield :
LOGIN :

Register | Disclaimer

   EN    FR    IT 

 










Legend :    VFR   Marginal VFR   IFR   Intensive IFR   Very Intensive IFR
Visi :
Ceiling :
>= 8 km
>= 3000ft
5 to 8 km
1000 to 3000 ft
1500m to 5 km
500 to 1000 ft
800 to 1500m
200 to 500 ft
< 800m
< 200 ft
Symbols :   Thunderstorms  Fog  Heavy snow  Heavy precipitations  Wind > 20 kt
SIGMETs :     Misc.  Thunderstorms  Icing  Turbulence  Mountain Waves  Volcanic Ashes






- Airport Elevation : 121 ft
- IATA code : HUY


EGNJ - Humberside

CURRENT METAR :
  • 021650Z AUTO 28022KT 9999 SCT041/// 12/02 Q1010

EXPIRED METARs :
  • 021620Z 29019KT 9999 FEW023 SCT045 12/03 Q1010
  • 021550Z 29022KT 9999 FEW023 SCT045 13/03 Q1010
  • 021520Z 28019KT 9999 FEW023 SCT045 13/03 Q1010
  • 021450Z 28021KT 9999 FEW023 SCT045 14/03 Q1010
  • 021420Z 27020KT 9999 SCT023 BKN044 13/03 Q1010
  • 021350Z 27021G31KT 9999 SCT022 BKN036 14/03 Q1010

TAF AMD TAF EGNJ
Valid from the 02 at 16:00 until the 03 at 00:00 UTC


021637Z 0216/0224 27015KT 9999 BKN030
TEMPO 0216/0218 27018G32KT
ATIS : +44 1652 682 020



MET'MAP, your aeronautical weather chart ! - Copyright ORBIFLY December 2007 - Disclaimer

ORBIFLY MET'MAP TEAM :

Programming & Development : Alexandra Zaïnal
Concept & original design : Baudouin d'Aumeries
Assistance for programming : Marc-Olivier Méhu
Technical & hardware support : Manuel Goepfert

Contact : metmap@orbifly.com




SOURCES & CREDITS :

   NOAA